Time;durP1;ratioP1;P1;durP2;ratioP2;P2;SDS_P1;SDS_P2;PMS_P1;PMS_P2;Temp;Humidity;BMP_temperature;BMP_pressure;BME280_temperature;BME280_humidity;BME280_pressure;Samples;Min_cycle;Max_cycle;Signal;HPM_P1;HPM_P2
2021/05/02 00:00:46;;;;;;;8.90;4.45;;;10.30;68.90;;;;;;10410489;28;20045;-60
2021/05/02 00:05:47;;;;;;;5.30;3.90;;;10.30;66.70;;;;;;10403268;28;20106;-60
2021/05/02 00:10:49;;;;;;;5.82;3.17;;;10.30;66.20;;;;;;10410560;28;20060;-60
2021/05/02 00:15:50;;;;;;;7.95;3.80;;;10.30;66.40;;;;;;10404571;28;20065;-60
2021/05/02 00:20:54;;;;;;;4.45;3.67;;;10.20;66.10;;;;;;10407195;28;20111;-60
2021/05/02 00:25:56;;;;;;;4.45;3.80;;;10.20;66.50;;;;;;10407136;28;20052;-60
2021/05/02 00:31:02;;;;;;;6.72;3.80;;;10.30;67.20;;;;;;10408112;28;20403;-61
2021/05/02 00:36:05;;;;;;;5.70;4.25;;;10.20;67.70;;;;;;10406703;28;20080;-60
2021/05/02 00:41:12;;;;;;;5.47;4.25;;;10.10;67.90;;;;;;10401894;28;20144;-60
2021/05/02 00:46:18;;;;;;;6.70;3.67;;;10.10;68.20;;;;;;10407453;28;20115;-61
2021/05/02 00:51:22;;;;;;;3.90;3.50;;;10.00;67.40;;;;;;10413904;28;20119;-59
2021/05/02 00:56:25;;;;;;;10.02;4.07;;;10.00;66.80;;;;;;10407618;28;20045;-59
2021/05/02 01:01:36;;;;;;;5.95;3.83;;;10.00;67.40;;;;;;10406129;28;20057;-59
2021/05/02 01:06:41;;;;;;;5.60;4.18;;;9.90;67.60;;;;;;10408840;28;20500;-59
2021/05/02 01:11:47;;;;;;;5.90;3.63;;;9.90;67.70;;;;;;10406416;28;20106;-59
2021/05/02 01:16:50;;;;;;;4.72;3.90;;;9.80;67.60;;;;;;10405778;28;20045;-60
2021/05/02 01:21:52;;;;;;;10.00;4.93;;;9.90;67.90;;;;;;10404355;28;20098;-60
2021/05/02 01:26:53;;;;;;;6.55;3.92;;;9.80;67.90;;;;;;10408427;28;20057;-61
2021/05/02 01:31:54;;;;;;;5.68;3.97;;;9.80;68.30;;;;;;10403926;28;20060;-61
2021/05/02 01:36:56;;;;;;;6.45;3.67;;;9.80;68.00;;;;;;10403391;28;20068;-61
2021/05/02 01:41:57;;;;;;;5.40;3.75;;;9.80;67.90;;;;;;10409118;28;20037;-61
2021/05/02 01:47:02;;;;;;;5.20;3.85;;;9.80;68.20;;;;;;10404375;28;20061;-61
2021/05/02 01:52:04;;;;;;;6.18;3.90;;;9.80;68.10;;;;;;10404814;28;20053;-61
2021/05/02 01:57:08;;;;;;;6.70;3.28;;;9.70;68.90;;;;;;10404657;28;20126;-61
2021/05/02 02:02:11;;;;;;;7.47;6.63;;;9.60;68.90;;;;;;10303525;28;20128;-60
2021/05/02 02:07:14;;;;;;;7.20;6.63;;;9.50;69.40;;;;;;10105767;28;20556;-61
2021/05/02 02:12:16;;;;;;;6.85;6.25;;;9.50;70.20;;;;;;10108471;28;20045;-61
2021/05/02 02:17:19;;;;;;;7.38;6.25;;;9.40;70.20;;;;;;10100486;28;20061;-60
2021/05/02 02:22:22;;;;;;;7.32;6.63;;;9.40;70.30;;;;;;10095150;28;20195;-61
2021/05/02 02:27:27;;;;;;;9.65;6.50;;;9.40;70.60;;;;;;10090833;28;20044;-61
2021/05/02 02:32:29;;;;;;;7.13;6.45;;;9.40;71.70;;;;;;10102223;28;20041;-61
2021/05/02 02:37:30;;;;;;;7.43;6.75;;;9.30;71.10;;;;;;10083352;28;20100;-61
2021/05/02 02:42:36;;;;;;;7.07;6.38;;;9.30;71.30;;;;;;10096643;28;20483;-60
2021/05/02 02:47:49;;;;;;;6.78;6.18;;;9.20;71.70;;;;;;10093734;28;20053;-58
2021/05/02 02:52:53;;;;;;;8.82;7.78;;;9.20;71.70;;;;;;10017730;28;20500;-59
2021/05/02 02:58:04;;;;;;;8.32;7.30;;;9.20;72.40;;;;;;10107400;28;20688;-58
2021/05/02 03:03:11;;;;;;;6.55;3.95;;;9.20;72.40;;;;;;10369331;28;20123;-58
2021/05/02 03:08:13;;;;;;;7.18;4.25;;;9.20;72.90;;;;;;10405029;28;20049;-58
2021/05/02 03:13:14;;;;;;;9.05;4.13;;;9.10;72.90;;;;;;10417580;28;20044;-58
2021/05/02 03:18:23;;;;;;;7.78;3.83;;;9.10;73.60;;;;;;10412154;28;20104;-59
2021/05/02 03:23:40;;;;;;;6.20;4.22;;;9.10;73.70;;;;;;10409600;28;20080;-59
2021/05/02 03:28:52;;;;;;;5.93;3.83;;;9.10;73.80;;;;;;10411358;28;20052;-59
2021/05/02 03:33:56;;;;;;;8.70;4.43;;;9.00;74.00;;;;;;10413432;28;20044;-58
2021/05/02 03:38:59;;;;;;;6.88;3.42;;;9.00;74.20;;;;;;10410354;28;20052;-58
2021/05/02 03:44:01;;;;;;;7.20;4.03;;;9.00;74.60;;;;;;10408970;28;20060;-58
2021/05/02 03:49:03;;;;;;;7.53;3.85;;;9.00;74.20;;;;;;10413446;28;20103;-59
2021/05/02 03:54:06;;;;;;;9.57;4.00;;;8.90;74.60;;;;;;10405938;28;20439;-58
2021/05/02 03:59:16;;;;;;;5.78;4.50;;;8.90;74.90;;;;;;10408909;28;20081;-58
2021/05/02 04:04:22;;;;;;;5.97;4.00;;;8.90;74.60;;;;;;10409981;28;20084;-58
2021/05/02 04:09:23;;;;;;;5.07;3.92;;;9.00;74.70;;;;;;10409751;28;20057;-58
2021/05/02 04:14:24;;;;;;;6.45;4.40;;;9.00;74.70;;;;;;10402996;28;20106;-58
2021/05/02 04:19:28;;;;;;;9.45;4.68;;;9.00;74.80;;;;;;10420130;28;20049;-58
2021/05/02 04:24:29;;;;;;;4.70;4.03;;;9.00;76.00;;;;;;10412303;28;20044;-58
2021/05/02 04:29:32;;;;;;;6.43;4.40;;;9.00;75.70;;;;;;10407575;28;20084;-58
2021/05/02 04:34:33;;;;;;;8.10;4.90;;;9.00;76.50;;;;;;10408406;28;20041;-61
2021/05/02 04:39:35;;;;;;;7.68;4.72;;;8.90;76.40;;;;;;10409712;28;20897;-60
2021/05/02 04:44:36;;;;;;;8.13;5.30;;;8.90;76.50;;;;;;10407162;28;20053;-60
2021/05/02 04:49:37;;;;;;;7.53;5.50;;;8.90;77.70;;;;;;10410591;28;20113;-60
2021/05/02 04:54:38;;;;;;;13.75;6.20;;;8.80;78.40;;;;;;10405556;28;20049;-60
2021/05/02 04:59:40;;;;;;;13.43;6.20;;;8.70;78.50;;;;;;10409365;28;20450;-60
2021/05/02 05:04:41;;;;;;;11.05;6.60;;;8.70;79.20;;;;;;10404712;28;20040;-60
2021/05/02 05:09:43;;;;;;;10.27;6.63;;;8.70;80.00;;;;;;10405028;28;20064;-60
2021/05/02 05:14:44;;;;;;;11.15;6.57;;;8.60;80.70;;;;;;10404697;28;20134;-60
2021/05/02 05:19:45;;;;;;;9.23;6.38;;;8.60;81.50;;;;;;10403366;28;20041;-60
2021/05/02 05:24:46;;;;;;;10.20;6.82;;;8.60;81.90;;;;;;10402616;28;20472;-60
2021/05/02 05:29:47;;;;;;;13.60;8.00;;;8.50;83.00;;;;;;10407256;28;20060;-59
2021/05/02 05:34:48;;;;;;;11.93;7.95;;;8.40;83.80;;;;;;10406983;28;20060;-60
2021/05/02 05:39:51;;;;;;;15.73;8.90;;;8.40;85.10;;;;;;10404643;28;20055;-60
2021/05/02 05:44:52;;;;;;;12.85;9.02;;;8.40;86.30;;;;;;10409296;28;20048;-60
2021/05/02 05:49:53;;;;;;;11.52;7.40;;;8.40;85.70;;;;;;10404865;28;20128;-59
2021/05/02 05:54:54;;;;;;;15.45;8.55;;;8.40;84.90;;;;;;10404745;28;20056;-61
2021/05/02 05:59:56;;;;;;;14.13;8.57;;;8.40;85.70;;;;;;10404800;28;20049;-60
2021/05/02 06:04:57;;;;;;;13.68;7.80;;;8.40;86.00;;;;;;10403592;28;20126;-59
2021/05/02 06:09:58;;;;;;;15.00;8.50;;;8.50;86.20;;;;;;10403506;28;20041;-59
2021/05/02 06:15:01;;;;;;;17.08;9.70;;;8.40;86.40;;;;;;10404563;28;20053;-59
2021/05/02 06:20:03;;;;;;;20.23;11.82;;;8.40;86.50;;;;;;10404759;28;20057;-60
2021/05/02 06:25:06;;;;;;;21.50;12.32;;;8.20;88.00;;;;;;10405645;28;20061;-59
2021/05/02 06:30:08;;;;;;;22.88;12.88;;;8.30;88.50;;;;;;10403918;28;20484;-60
2021/05/02 06:35:10;;;;;;;21.10;12.95;;;8.40;89.40;;;;;;10414708;28;20103;-60
2021/05/02 06:40:12;;;;;;;19.75;10.07;;;8.20;88.50;;;;;;10409830;28;20045;-60
2021/05/02 06:45:13;;;;;;;13.63;8.95;;;8.20;84.90;;;;;;10408157;28;20057;-61
2021/05/02 06:50:15;;;;;;;14.57;8.00;;;8.20;83.40;;;;;;10416281;28;20049;-60
2021/05/02 06:55:16;;;;;;;14.05;7.47;;;8.50;81.00;;;;;;10414185;28;20102;-60
2021/05/02 07:00:17;;;;;;;11.57;7.60;;;8.60;78.80;;;;;;10413381;28;20056;-59
2021/05/02 07:05:19;;;;;;;11.75;6.18;;;8.80;79.00;;;;;;10413517;28;20052;-59
2021/05/02 07:10:20;;;;;;;12.70;7.10;;;8.80;77.60;;;;;;10408558;28;20089;-60
2021/05/02 07:15:22;;;;;;;10.52;6.20;;;8.90;77.50;;;;;;10409500;28;20500;-59
2021/05/02 07:20:23;;;;;;;8.15;5.43;;;9.10;76.50;;;;;;10405465;28;20568;-59
2021/05/02 07:25:24;;;;;;;9.98;4.93;;;9.00;75.40;;;;;;10406357;28;20060;-60
2021/05/02 07:30:26;;;;;;;11.65;5.97;;;9.20;74.20;;;;;;10387802;28;20395;-60
2021/05/02 07:35:29;;;;;;;10.80;5.82;;;9.30;75.80;;;;;;10402464;28;20083;-60
2021/05/02 07:40:30;;;;;;;10.05;6.00;;;9.30;74.00;;;;;;10409664;28;20058;-59
2021/05/02 07:45:32;;;;;;;9.70;5.57;;;9.60;74.00;;;;;;10406485;28;20561;-60
2021/05/02 07:50:33;;;;;;;12.18;5.30;;;9.40;72.70;;;;;;10407982;28;20053;-60
2021/05/02 07:55:35;;;;;;;8.02;3.70;;;9.40;71.10;;;;;;10417548;28;20057;-59
2021/05/02 08:00:36;;;;;;;7.45;4.18;;;9.60;70.60;;;;;;10407744;28;20064;-59
2021/05/02 08:05:38;;;;;;;9.35;4.57;;;9.70;70.70;;;;;;10407344;28;20077;-60
2021/05/02 08:10:39;;;;;;;9.23;5.25;;;9.90;71.10;;;;;;10407679;28;20116;-60
2021/05/02 08:15:40;;;;;;;9.60;5.30;;;10.10;69.80;;;;;;10412092;28;20057;-60
2021/05/02 08:20:42;;;;;;;9.18;5.05;;;10.20;70.70;;;;;;10403711;28;20057;-60
2021/05/02 08:25:43;;;;;;;8.82;5.13;;;10.60;69.70;;;;;;10405030;28;20053;-58
2021/05/02 08:30:49;;;;;;;11.40;5.38;;;10.70;67.50;;;;;;10412676;28;20103;-58
2021/05/02 08:35:51;;;;;;;11.48;4.93;;;10.60;67.30;;;;;;10412229;28;20059;-59
2021/05/02 08:40:54;;;;;;;7.03;3.95;;;10.50;67.30;;;;;;10407612;28;20049;-60
2021/05/02 08:45:56;;;;;;;7.97;5.03;;;10.30;64.90;;;;;;10410661;28;20410;-60
2021/05/02 08:50:58;;;;;;;7.20;3.72;;;10.40;65.20;;;;;;10400716;28;20052;-58
2021/05/02 08:56:02;;;;;;;5.55;3.08;;;11.00;64.70;;;;;;10403493;28;20071;-58
2021/05/02 09:01:04;;;;;;;6.30;4.40;;;10.80;63.50;;;;;;10407762;28;20487;-60
2021/05/02 09:06:23;;;;;;;5.50;3.20;;;10.90;68.10;;;;;;10405837;28;20102;-60
2021/05/02 09:11:39;;;;;;;5.40;3.30;;;11.10;64.70;;;;;;10361586;28;20049;-59
2021/05/02 09:17:09;;;;;;;5.82;3.30;;;11.20;64.80;;;;;;10408874;28;20072;-60
2021/05/02 09:22:12;;;;;;;7.18;3.95;;;10.80;63.70;;;;;;10406886;28;20061;-59
2021/05/02 09:27:16;;;;;;;7.97;3.13;;;10.90;64.70;;;;;;10406205;28;20044;-61
2021/05/02 09:32:22;;;;;;;4.95;3.80;;;11.10;60.90;;;;;;10410708;28;20055;-59
2021/05/02 09:37:36;;;;;;;5.27;3.13;;;10.80;63.00;;;;;;10408209;28;20103;-59
2021/05/02 09:42:45;;;;;;;5.55;3.58;;;10.60;67.70;;;;;;10408381;28;20076;-59
2021/05/02 09:47:47;;;;;;;7.07;2.95;;;10.90;69.30;;;;;;10408608;28;20060;-59
2021/05/02 09:53:05;;;;;;;5.10;2.65;;;10.60;67.80;;;;;;10405696;28;20049;-59
2021/05/02 09:58:13;;;;;;;;;;;10.60;64.70;;;;;;10405427;28;20114;-58
2021/05/02 10:03:19;;;;;;;2.95;2.10;;;10.70;65.10;;;;;;10405875;28;19929;-60
2021/05/02 10:08:21;;;;;;;4.75;2.00;;;10.30;62.50;;;;;;10408642;28;20668;-60
2021/05/02 10:13:23;;;;;;;5.55;3.10;;;10.30;64.10;;;;;;10419392;28;20053;-59
2021/05/02 10:18:25;;;;;;;4.07;2.75;;;10.50;66.70;;;;;;10401110;28;20045;-60
2021/05/02 10:23:26;;;;;;;5.22;2.10;;;10.30;67.30;;;;;;10408561;28;20048;-60
2021/05/02 10:28:29;;;;;;;3.83;1.98;;;10.00;68.90;;;;;;10399183;28;20124;-59
2021/05/02 10:33:41;;;;;;;6.68;2.25;;;10.00;68.90;;;;;;10402427;28;20164;-58
2021/05/02 10:38:52;;;;;;;2.25;1.70;;;10.20;68.10;;;;;;10405169;28;20067;-59
2021/05/02 10:43:55;;;;;;;3.25;1.60;;;10.40;66.70;;;;;;10404681;28;20045;-58
2021/05/02 10:48:56;;;;;;;2.88;1.45;;;10.40;65.60;;;;;;10407107;28;20040;-58
2021/05/02 10:54:02;;;;;;;4.72;1.45;;;10.00;66.40;;;;;;10403886;28;20064;-59
2021/05/02 10:59:03;;;;;;;2.53;1.05;;;9.80;65.20;;;;;;10405281;28;20045;-58
2021/05/02 11:04:05;;;;;;;3.70;1.38;;;9.90;65.70;;;;;;10401770;28;20183;-60
2021/05/02 11:09:08;;;;;;;0.82;0.68;;;10.00;65.30;;;;;;10405697;28;20045;-58
2021/05/02 11:19:25;;;;;;;3.55;1.08;;;10.10;64.80;;;;;;10406447;28;20107;-61
2021/05/02 11:24:49;;;;;;;2.08;1.42;;;10.10;64.70;;;;;;10364587;28;20055;-60
2021/05/02 11:30:05;;;;;;;3.45;2.10;;;9.70;69.10;;;;;;10411059;28;20045;-60
2021/05/02 11:35:08;;;;;;;4.22;2.45;;;9.40;71.50;;;;;;10404386;28;20126;-60
2021/05/02 11:40:18;;;;;;;3.03;2.33;;;9.20;72.00;;;;;;10407572;28;20103;-60
2021/05/02 11:45:21;;;;;;;3.92;2.15;;;9.10;70.80;;;;;;10409926;28;20414;-61
2021/05/02 11:50:23;;;;;;;5.43;2.17;;;9.10;71.40;;;;;;10407110;28;20722;-60
2021/05/02 11:55:39;;;;;;;4.45;3.20;;;9.60;71.10;;;;;;10411206;28;20049;-61
2021/05/02 12:00:46;;;;;;;6.63;3.40;;;9.80;68.60;;;;;;10410719;28;20483;-62
2021/05/02 12:05:52;;;;;;;2.80;2.10;;;10.00;67.60;;;;;;10404231;28;20782;-61
2021/05/02 12:11:06;;;;;;;2.05;1.88;;;10.90;64.30;;;;;;10412242;28;20052;-61
2021/05/02 12:16:10;;;;;;;4.70;2.40;;;11.20;63.50;;;;;;10407455;28;20045;-62
2021/05/02 12:21:32;;;;;;;5.13;2.20;;;11.10;63.10;;;;;;10406468;28;20049;-62
2021/05/02 12:26:36;;;;;;;2.55;1.52;;;10.50;64.30;;;;;;10408387;28;20102;-63
2021/05/02 12:31:38;;;;;;;4.95;1.40;;;11.00;60.20;;;;;;10409033;28;20070;-63
2021/05/02 12:36:39;;;;;;;3.85;1.50;;;11.10;60.00;;;;;;10405115;28;20818;-62
2021/05/02 12:41:41;;;;;;;2.15;1.48;;;11.20;60.50;;;;;;10410927;28;20582;-62
2021/05/02 12:46:51;;;;;;;2.92;1.63;;;11.20;61.80;;;;;;10408234;28;20422;-63
2021/05/02 12:52:03;;;;;;;1.90;1.10;;;11.30;62.80;;;;;;10406276;28;20267;-62
2021/05/02 12:57:16;;;;;;;2.72;1.35;;;12.00;59.40;;;;;;10406629;28;20048;-62
2021/05/02 13:02:31;;;;;;;1.73;1.38;;;11.80;58.70;;;;;;10402495;28;20397;-63
2021/05/02 13:07:41;;;;;;;2.20;1.00;;;11.70;57.60;;;;;;10403979;28;20053;-63
2021/05/02 13:12:50;;;;;;;1.40;1.30;;;12.30;58.70;;;;;;10405092;28;20797;-62
2021/05/02 13:18:04;;;;;;;2.35;1.35;;;13.10;56.20;;;;;;10402607;28;20050;-62
2021/05/02 13:23:06;;;;;;;4.18;1.00;;;12.80;55.30;;;;;;10408117;28;20452;-62
2021/05/02 13:28:08;;;;;;;3.17;0.80;;;12.50;54.70;;;;;;10396384;28;20123;-62
2021/05/02 13:33:11;;;;;;;1.00;0.65;;;12.60;53.50;;;;;;10405738;28;20054;-62
2021/05/02 13:38:15;;;;;;;2.42;0.70;;;14.20;51.60;;;;;;10404513;28;20467;-63
2021/05/02 13:43:17;;;;;;;3.70;1.10;;;13.70;52.10;;;;;;10404821;28;20053;-62
2021/05/02 13:48:18;;;;;;;2.08;1.00;;;13.50;52.50;;;;;;10401819;28;20060;-62
2021/05/02 13:53:20;;;;;;;2.00;0.73;;;13.20;53.40;;;;;;10407837;28;20500;-62
2021/05/02 13:58:21;;;;;;;1.95;0.65;;;13.00;53.20;;;;;;10407223;28;20061;-62
2021/05/02 14:03:32;;;;;;;2.60;1.00;;;12.90;53.20;;;;;;10406248;28;20067;-62
2021/05/02 14:08:33;;;;;;;4.68;1.00;;;13.10;55.70;;;;;;10405787;28;20053;-63
2021/05/02 14:13:35;;;;;;;3.03;0.70;;;13.00;52.90;;;;;;10397513;28;20480;-63
2021/05/02 14:18:36;;;;;;;1.40;0.80;;;13.30;52.80;;;;;;10401612;28;20049;-62
2021/05/02 14:23:38;;;;;;;2.97;0.70;;;12.80;52.90;;;;;;10402272;28;20053;-62
2021/05/02 14:28:39;;;;;;;1.13;0.50;;;12.40;52.60;;;;;;10402681;28;20127;-63
2021/05/02 14:33:40;;;;;;;1.10;0.60;;;12.70;53.30;;;;;;10404398;28;20045;-62
2021/05/02 14:38:42;;;;;;;1.98;0.70;;;12.80;54.00;;;;;;10405559;28;20053;-63
2021/05/02 14:43:44;;;;;;;1.40;0.50;;;12.30;55.00;;;;;;10401307;28;20058;-62
2021/05/02 14:48:45;;;;;;;2.25;0.80;;;12.00;54.00;;;;;;10405415;28;20511;-62
2021/05/02 14:53:46;;;;;;;1.55;0.60;;;12.10;53.80;;;;;;10407252;28;20541;-62
2021/05/02 14:58:47;;;;;;;1.92;1.33;;;12.10;55.40;;;;;;10414042;28;20118;-63
2021/05/02 15:03:49;;;;;;;1.45;0.77;;;12.00;57.70;;;;;;10415348;28;20118;-62
2021/05/02 15:08:50;;;;;;;3.78;1.27;;;11.90;59.30;;;;;;10426375;28;20051;-63
2021/05/02 15:13:51;;;;;;;2.97;0.80;;;11.90;58.60;;;;;;10420256;28;20098;-62
2021/05/02 15:18:53;;;;;;;1.40;0.80;;;11.90;59.80;;;;;;10419150;28;20079;-63
2021/05/02 15:23:54;;;;;;;1.35;0.70;;;11.90;59.20;;;;;;10413301;28;20372;-62
2021/05/02 15:28:55;;;;;;;1.85;0.88;;;12.00;57.70;;;;;;10413413;28;20037;-62
2021/05/02 15:33:56;;;;;;;1.17;0.60;;;12.10;55.00;;;;;;10415213;28;20442;-62
2021/05/02 15:38:58;;;;;;;2.08;0.52;;;12.50;54.70;;;;;;10407026;28;20045;-63
2021/05/02 15:44:01;;;;;;;1.05;0.50;;;12.10;52.70;;;;;;10406960;28;20453;-63
2021/05/02 15:49:02;;;;;;;2.70;0.50;;;11.80;52.20;;;;;;10415238;28;20147;-63
2021/05/02 15:54:04;;;;;;;0.88;0.43;;;12.00;49.50;;;;;;10424282;28;20048;-62
2021/05/02 15:59:05;;;;;;;2.50;0.40;;;12.30;50.00;;;;;;10416124;28;20041;-62
2021/05/02 16:04:06;;;;;;;1.77;0.50;;;12.40;50.80;;;;;;10414281;28;20056;-63
2021/05/02 16:09:08;;;;;;;0.85;0.43;;;12.20;50.70;;;;;;10410872;28;20052;-62
2021/05/02 16:14:09;;;;;;;1.90;0.40;;;12.60;49.40;;;;;;10408075;28;20526;-63
2021/05/02 16:19:10;;;;;;;2.25;1.65;;;13.40;49.30;;;;;;10413273;28;20052;-64
2021/05/02 16:24:13;;;;;;;1.88;0.52;;;14.00;48.20;;;;;;10407655;28;20087;-63
2021/05/02 16:29:14;;;;;;;2.40;0.45;;;13.50;48.60;;;;;;10408782;28;20045;-62
2021/05/02 16:34:16;;;;;;;1.63;0.40;;;14.10;48.70;;;;;;10408738;28;20042;-63
2021/05/02 16:39:19;;;;;;;1.00;0.47;;;14.40;49.20;;;;;;10406425;28;20057;-63
2021/05/02 16:44:22;;;;;;;1.23;0.50;;;13.20;50.00;;;;;;10408295;28;20114;-63
2021/05/02 16:49:26;;;;;;;0.77;0.40;;;12.90;49.70;;;;;;10409975;28;20096;-63
2021/05/02 16:54:27;;;;;;;3.10;0.50;;;13.00;49.60;;;;;;10407230;28;20060;-64
2021/05/02 16:59:28;;;;;;;0.73;0.45;;;13.40;51.00;;;;;;10408236;28;20045;-63
2021/05/02 17:04:30;;;;;;;2.20;0.60;;;13.50;50.10;;;;;;10409348;28;20056;-63
2021/05/02 17:09:31;;;;;;;0.43;0.30;;;13.70;50.10;;;;;;10414337;28;20089;-62
2021/05/02 17:14:32;;;;;;;3.30;0.65;;;13.30;47.30;;;;;;10407918;28;20475;-63
2021/05/02 17:19:33;;;;;;;3.13;0.40;;;13.30;48.20;;;;;;10411186;28;20045;-63
2021/05/02 17:24:35;;;;;;;1.05;0.40;;;13.20;47.90;;;;;;10408942;28;20071;-63
2021/05/02 17:29:36;;;;;;;2.80;0.40;;;13.10;49.80;;;;;;10407856;28;20110;-63
2021/05/02 17:34:38;;;;;;;0.68;0.35;;;12.60;49.90;;;;;;10398438;28;20492;-64
2021/05/02 17:39:39;;;;;;;2.58;0.40;;;12.20;51.80;;;;;;10425965;28;20049;-63
2021/05/02 17:44:41;;;;;;;1.38;0.98;;;12.40;52.30;;;;;;10412851;28;20063;-63
2021/05/02 17:49:42;;;;;;;1.75;0.50;;;12.20;52.20;;;;;;10411780;28;20045;-63
2021/05/02 17:54:44;;;;;;;0.95;0.40;;;11.60;52.80;;;;;;10412602;28;20053;-62
2021/05/02 17:59:45;;;;;;;3.53;0.60;;;11.40;54.00;;;;;;10412764;28;20444;-63
2021/05/02 18:04:46;;;;;;;3.13;0.55;;;11.30;55.80;;;;;;10410653;28;20107;-63
2021/05/02 18:09:47;;;;;;;2.17;0.57;;;10.90;56.90;;;;;;10413100;28;20053;-64
2021/05/02 18:14:49;;;;;;;0.65;0.43;;;10.60;57.60;;;;;;10407411;28;20063;-63
2021/05/02 18:19:50;;;;;;;0.70;0.40;;;10.50;57.10;;;;;;10415684;28;20103;-64
2021/05/02 18:24:52;;;;;;;1.77;0.60;;;10.40;57.40;;;;;;10408960;28;20418;-63
2021/05/02 18:29:54;;;;;;;1.80;0.50;;;10.20;57.70;;;;;;10416487;28;20056;-63
2021/05/02 18:34:55;;;;;;;2.50;0.50;;;10.20;58.50;;;;;;10414995;28;20041;-63
2021/05/02 18:39:56;;;;;;;2.80;0.60;;;9.90;60.00;;;;;;10431282;28;20053;-64
2021/05/02 18:44:58;;;;;;;1.02;0.40;;;9.80;60.10;;;;;;10413705;28;20049;-62
2021/05/02 18:49:59;;;;;;;4.20;0.60;;;9.60;61.20;;;;;;10419089;28;20520;-63
2021/05/02 18:55:00;;;;;;;2.70;0.65;;;9.60;60.20;;;;;;10420030;28;20182;-62
2021/05/02 19:00:05;;;;;;;1.75;0.65;;;9.50;61.10;;;;;;10415090;28;20040;-61
2021/05/02 19:05:06;;;;;;;2.15;0.80;;;9.40;63.00;;;;;;10416120;28;20434;-63
2021/05/02 19:10:08;;;;;;;1.50;0.65;;;9.20;63.00;;;;;;10416856;28;20095;-63
2021/05/02 19:15:09;;;;;;;3.83;0.60;;;9.10;63.60;;;;;;10416698;28;20052;-63
2021/05/02 19:20:11;;;;;;;0.82;0.65;;;9.00;64.00;;;;;;10416763;28;20132;-61
2021/05/02 19:25:15;;;;;;;3.95;0.60;;;8.90;64.90;;;;;;10410631;28;20061;-60
2021/05/02 19:30:17;;;;;;;2.70;0.60;;;8.80;66.10;;;;;;10412874;28;20045;-61
2021/05/02 19:35:18;;;;;;;4.03;1.55;;;8.60;66.60;;;;;;10409078;28;20115;-60
2021/05/02 19:40:22;;;;;;;0.77;0.63;;;8.50;67.30;;;;;;10411602;28;20088;-61
2021/05/02 19:45:24;;;;;;;2.03;0.98;;;8.40;67.70;;;;;;10406346;28;20053;-60
2021/05/02 19:50:26;;;;;;;2.15;0.82;;;8.40;68.40;;;;;;10412873;28;20049;-60
2021/05/02 19:55:30;;;;;;;5.97;1.35;;;8.30;68.60;;;;;;10412303;28;20464;-60
2021/05/02 20:00:36;;;;;;;2.80;1.08;;;8.30;68.50;;;;;;10417265;28;20138;-60
2021/05/02 20:05:39;;;;;;;1.77;0.80;;;8.20;69.00;;;;;;10414785;28;20049;-60
2021/05/02 20:10:41;;;;;;;3.45;0.90;;;8.10;69.40;;;;;;10409726;28;20049;-61
2021/05/02 20:15:42;;;;;;;2.60;0.93;;;8.00;70.30;;;;;;10408974;28;20053;-60
2021/05/02 20:20:43;;;;;;;2.20;1.65;;;8.00;70.90;;;;;;10406899;28;20064;-59
2021/05/02 20:25:44;;;;;;;4.18;0.82;;;7.90;71.60;;;;;;10412439;28;20753;-60
2021/05/02 20:30:46;;;;;;;1.73;0.85;;;7.80;72.80;;;;;;10408713;28;20396;-61
2021/05/02 20:35:48;;;;;;;2.50;1.10;;;7.70;72.70;;;;;;10402394;28;20449;-60
2021/05/02 20:40:49;;;;;;;2.50;0.80;;;7.70;73.30;;;;;;10410118;28;20491;-60
2021/05/02 20:45:51;;;;;;;2.58;0.85;;;7.60;74.40;;;;;;10408286;28;20048;-61
2021/05/02 20:50:52;;;;;;;2.70;1.33;;;7.50;74.50;;;;;;10408554;28;20052;-60
2021/05/02 20:55:53;;;;;;;4.07;1.20;;;7.50;75.30;;;;;;10407557;28;20496;-60
2021/05/02 21:00:59;;;;;;;4.88;1.33;;;7.50;75.90;;;;;;10405016;28;20053;-60
2021/05/02 21:06:00;;;;;;;2.42;0.88;;;7.40;75.80;;;;;;10408729;28;20049;-60
2021/05/02 21:11:02;;;;;;;1.55;0.70;;;7.40;76.20;;;;;;10402161;28;20053;-60
2021/05/02 21:16:04;;;;;;;2.38;1.00;;;7.40;76.10;;;;;;10406950;28;20060;-60
2021/05/02 21:21:06;;;;;;;3.08;0.95;;;7.30;76.50;;;;;;10404145;28;20058;-59
2021/05/02 21:26:07;;;;;;;2.15;0.80;;;7.20;76.60;;;;;;10390085;28;20049;-60
2021/05/02 21:31:08;;;;;;;4.07;1.63;;;7.20;76.70;;;;;;10404818;28;20053;-60
2021/05/02 21:36:09;;;;;;;2.15;0.90;;;7.20;77.10;;;;;;10410428;28;20049;-60
2021/05/02 21:41:10;;;;;;;8.52;1.10;;;7.20;77.40;;;;;;10409785;28;20107;-62
2021/05/02 21:46:16;;;;;;;2.90;1.13;;;7.10;77.80;;;;;;10408885;28;20057;-60
2021/05/02 21:51:18;;;;;;;2.08;1.30;;;7.00;78.40;;;;;;10406749;28;20049;-60
2021/05/02 21:56:21;;;;;;;3.40;1.45;;;7.00;79.00;;;;;;10406920;28;20565;-60
2021/05/02 22:01:23;;;;;;;3.65;1.10;;;6.90;80.10;;;;;;10406568;28;20053;-60
2021/05/02 22:06:25;;;;;;;3.85;1.20;;;6.80;81.10;;;;;;10406031;28;20056;-61
2021/05/02 22:11:26;;;;;;;5.20;1.30;;;6.70;82.30;;;;;;10407317;28;20045;-60
2021/05/02 22:16:27;;;;;;;4.03;1.52;;;6.60;83.50;;;;;;10408760;28;20045;-60
2021/05/02 22:21:29;;;;;;;3.70;1.40;;;6.40;84.50;;;;;;10406767;28;20041;-60
2021/05/02 22:26:30;;;;;;;2.35;1.60;;;6.40;85.10;;;;;;10406359;28;20569;-60
2021/05/02 22:31:32;;;;;;;5.68;1.50;;;6.30;90.20;;;;;;10405332;28;20396;-60
2021/05/02 22:36:33;;;;;;;5.63;1.88;;;6.10;92.30;;;;;;10406164;28;20057;-60
2021/05/02 22:41:35;;;;;;;3.20;2.03;;;6.00;92.50;;;;;;10407221;28;20057;-60
2021/05/02 22:46:36;;;;;;;2.17;1.20;;;5.90;93.10;;;;;;10403268;28;20045;-62
2021/05/02 22:51:37;;;;;;;5.15;1.70;;;5.90;92.20;;;;;;10404071;28;20112;-60
2021/05/02 22:56:39;;;;;;;2.75;1.65;;;5.80;93.40;;;;;;10401560;28;20053;-60
2021/05/02 23:01:41;;;;;;;6.10;3.15;;;5.80;95.90;;;;;;10402341;28;20049;-60
2021/05/02 23:06:42;;;;;;;5.75;3.03;;;5.70;97.90;;;;;;10403254;28;20057;-60
2021/05/02 23:11:43;;;;;;;5.57;2.17;;;5.60;99.60;;;;;;10404160;28;20107;-60
2021/05/02 23:16:45;;;;;;;7.20;2.00;;;5.40;99.90;;;;;;10417010;28;20503;-60
2021/05/02 23:21:46;;;;;;;3.20;1.75;;;5.40;99.90;;;;;;10411053;28;20064;-61
2021/05/02 23:26:47;;;;;;;4.05;2.10;;;5.20;99.90;;;;;;10406625;28;20609;-61
2021/05/02 23:31:48;;;;;;;3.38;2.13;;;5.10;99.90;;;;;;10410425;28;20130;-60
2021/05/02 23:36:49;;;;;;;7.40;2.50;;;5.10;99.90;;;;;;10410853;28;20271;-62
2021/05/02 23:41:51;;;;;;;4.03;1.75;;;5.00;99.90;;;;;;10411809;28;20047;-60
2021/05/02 23:46:52;;;;;;;3.15;1.80;;;4.90;99.90;;;;;;10412644;28;20045;-60
2021/05/02 23:51:53;;;;;;;2.20;1.90;;;4.90;99.90;;;;;;10413568;28;20049;-60
2021/05/02 23:56:54;;;;;;;4.32;1.88;;;4.70;99.90;;;;;;10410156;28;20131;-60
